Heron — WDG2159 — position and weather

sailwx.info

Track history (hours):
 
Tides and Currents Weather Stations Pressure Air Temp Water Temp Dewpoint Dewpoint Depression Visibility Wind Speed Wind Dir Waves Ship Positions

Heron

Owner: Davies, Sanders, Norwalk, CT. More information available from US FCC via Universal Licensing System and Coast Guard Vessel Documentation Center.

Last reported at 2016-Apr-28 13:31 UTC. Time now 2016-Apr-28 19:50 UTC.
Position N 36°50' W 076°18'.

Length 14 m.

Type: Sailing vessel. MMSI: 367512760.

Date/timePositionNaut miles runAvg speedWind from/ knotsBaromVisibWave heightAir tempDewpointWater temp
2016-Apr-28 13:31N 36°50' W 076°18'4 3.6
2016-Apr-28 12:31N 36°46' W 076°18'3 2.7
2016-Apr-28 11:30N 36°44' W 076°16'113 3.1
2016-Apr-26 23:19N 34°53' W 076°41'5 6.2
2016-Apr-26 22:33N 34°48' W 076°41'6 5.9
2016-Apr-26 21:33N 34°42' W 076°41'6 6.1
2016-Apr-26 20:33N 34°36' W 076°42'8 7.2
2016-Apr-26 19:30N 34°31' W 076°48'  
2016-Apr-23 19:29N 26°30' W 079°53'8 8.0
2016-Apr-23 18:32N 26°24' W 079°57'8 8.3
2016-Apr-23 17:32N 26°17' W 080°02'3 2.8
2016-Apr-23 16:28N 26°16' W 080°05'0 0.0
2016-Apr-23 15:31N 26°16' W 080°05'  
Track history (hours):
 
Tides and Currents Weather Stations Pressure Air Temp Water Temp Dewpoint Dewpoint Depression Visibility Wind Speed Wind Dir Waves Ship Positions

Heron

Owner: Davies, Sanders, Norwalk, CT. More information available from US FCC via Universal Licensing System and Coast Guard Vessel Documentation Center.

Last reported at 2016-Apr-28 13:31 UTC. Time now 2016-Apr-28 19:50 UTC.
Position N 36°50' W 076°18'.

Length 14 m.

Type: Sailing vessel. MMSI: 367512760.

Date/timePositionNaut miles runAvg speedWind from/ knotsBaromVisibWave heightAir tempDewpointWater temp
2016-Apr-28 13:31N 36°50' W 076°18'4 3.6
2016-Apr-28 12:31N 36°46' W 076°18'3 2.7
2016-Apr-28 11:30N 36°44' W 076°16'113 3.1
2016-Apr-26 23:19N 34°53' W 076°41'5 6.2
2016-Apr-26 22:33N 34°48' W 076°41'6 5.9
2016-Apr-26 21:33N 34°42' W 076°41'6 6.1
2016-Apr-26 20:33N 34°36' W 076°42'8 7.2
2016-Apr-26 19:30N 34°31' W 076°48'  
2016-Apr-23 19:29N 26°30' W 079°53'8 8.0
2016-Apr-23 18:32N 26°24' W 079°57'8 8.3
2016-Apr-23 17:32N 26°17' W 080°02'3 2.8
2016-Apr-23 16:28N 26°16' W 080°05'0 0.0
2016-Apr-23 15:31N 26°16' W 080°05'  

Dump ship's entire track history